sensor_id;sensor_type;location;lat;lon;timestamp;temperature;humidity
74101;DHT22;62462;52.530;21.682;2023-04-24T00:00:28;14.90;48.60
74101;DHT22;62462;52.530;21.682;2023-04-24T00:02:54;14.90;48.90
74101;DHT22;62462;52.530;21.682;2023-04-24T00:05:22;14.90;49.00
74101;DHT22;62462;52.530;21.682;2023-04-24T00:07:48;14.70;49.50
74101;DHT22;62462;52.530;21.682;2023-04-24T00:10:14;14.60;49.70
74101;DHT22;62462;52.530;21.682;2023-04-24T00:12:39;14.70;49.50
74101;DHT22;62462;52.530;21.682;2023-04-24T00:15:06;14.70;49.60
74101;DHT22;62462;52.530;21.682;2023-04-24T00:17:31;14.70;49.60
74101;DHT22;62462;52.530;21.682;2023-04-24T00:19:57;14.70;49.80
74101;DHT22;62462;52.530;21.682;2023-04-24T00:22:30;14.70;50.00
74101;DHT22;62462;52.530;21.682;2023-04-24T00:24:56;14.70;49.80
74101;DHT22;62462;52.530;21.682;2023-04-24T00:27:23;14.60;49.90
74101;DHT22;62462;52.530;21.682;2023-04-24T00:29:49;14.60;50.00
74101;DHT22;62462;52.530;21.682;2023-04-24T00:32:14;14.70;50.30
74101;DHT22;62462;52.530;21.682;2023-04-24T00:34:41;14.80;50.00
74101;DHT22;62462;52.530;21.682;2023-04-24T00:37:07;14.80;49.90
74101;DHT22;62462;52.530;21.682;2023-04-24T00:39:33;14.90;49.60
74101;DHT22;62462;52.530;21.682;2023-04-24T00:41:59;15.00;49.30
74101;DHT22;62462;52.530;21.682;2023-04-24T00:44:25;15.10;49.10
74101;DHT22;62462;52.530;21.682;2023-04-24T00:46:51;15.10;48.90
74101;DHT22;62462;52.530;21.682;2023-04-24T00:49:23;15.10;48.80
74101;DHT22;62462;52.530;21.682;2023-04-24T00:51:49;15.10;48.90
74101;DHT22;62462;52.530;21.682;2023-04-24T00:54:17;15.10;48.80
74101;DHT22;62462;52.530;21.682;2023-04-24T00:56:44;15.10;48.90
74101;DHT22;62462;52.530;21.682;2023-04-24T00:59:11;15.00;48.70
74101;DHT22;62462;52.530;21.682;2023-04-24T01:01:37;15.00;48.70
74101;DHT22;62462;52.530;21.682;2023-04-24T01:04:08;15.00;48.70
74101;DHT22;62462;52.530;21.682;2023-04-24T01:06:40;15.00;48.90
74101;DHT22;62462;52.530;21.682;2023-04-24T01:09:07;14.90;48.80
74101;DHT22;62462;52.530;21.682;2023-04-24T01:11:36;14.90;49.00
74101;DHT22;62462;52.530;21.682;2023-04-24T01:14:02;14.90;49.10
74101;DHT22;62462;52.530;21.682;2023-04-24T01:16:28;14.80;49.10
74101;DHT22;62462;52.530;21.682;2023-04-24T01:18:53;14.90;49.20
74101;DHT22;62462;52.530;21.682;2023-04-24T01:21:21;14.80;49.40
74101;DHT22;62462;52.530;21.682;2023-04-24T01:23:47;14.70;49.50
74101;DHT22;62462;52.530;21.682;2023-04-24T01:26:16;14.70;49.50
74101;DHT22;62462;52.530;21.682;2023-04-24T01:28:42;14.70;49.70
74101;DHT22;62462;52.530;21.682;2023-04-24T01:31:07;14.70;49.70
74101;DHT22;62462;52.530;21.682;2023-04-24T01:33:33;14.70;49.70
74101;DHT22;62462;52.530;21.682;2023-04-24T01:35:59;14.70;49.60
74101;DHT22;62462;52.530;21.682;2023-04-24T01:38:25;14.70;49.60
74101;DHT22;62462;52.530;21.682;2023-04-24T01:40:51;14.70;49.50
74101;DHT22;62462;52.530;21.682;2023-04-24T01:43:18;14.70;49.60
74101;DHT22;62462;52.530;21.682;2023-04-24T01:45:44;14.60;49.90
74101;DHT22;62462;52.530;21.682;2023-04-24T01:48:11;14.60;50.10
74101;DHT22;62462;52.530;21.682;2023-04-24T01:50:37;14.50;50.30
74101;DHT22;62462;52.530;21.682;2023-04-24T01:53:03;14.50;50.20
74101;DHT22;62462;52.530;21.682;2023-04-24T01:55:29;14.40;50.20
74101;DHT22;62462;52.530;21.682;2023-04-24T01:57:56;14.50;50.40
74101;DHT22;62462;52.530;21.682;2023-04-24T02:00:22;14.50;50.50
74101;DHT22;62462;52.530;21.682;2023-04-24T02:02:48;14.50;50.20
74101;DHT22;62462;52.530;21.682;2023-04-24T02:05:14;14.50;50.20
74101;DHT22;62462;52.530;21.682;2023-04-24T02:07:39;14.40;50.30
74101;DHT22;62462;52.530;21.682;2023-04-24T02:10:06;14.40;50.50
74101;DHT22;62462;52.530;21.682;2023-04-24T02:12:32;14.30;50.70
74101;DHT22;62462;52.530;21.682;2023-04-24T02:14:58;14.20;50.70
74101;DHT22;62462;52.530;21.682;2023-04-24T02:17:24;14.20;50.80
74101;DHT22;62462;52.530;21.682;2023-04-24T02:19:50;14.20;50.80
74101;DHT22;62462;52.530;21.682;2023-04-24T02:22:15;14.20;50.90
74101;DHT22;62462;52.530;21.682;2023-04-24T02:24:41;14.20;50.80
74101;DHT22;62462;52.530;21.682;2023-04-24T02:27:07;14.20;50.90
74101;DHT22;62462;52.530;21.682;2023-04-24T02:29:32;14.20;50.80
74101;DHT22;62462;52.530;21.682;2023-04-24T02:31:58;14.30;50.80
74101;DHT22;62462;52.530;21.682;2023-04-24T02:34:24;14.30;50.90
74101;DHT22;62462;52.530;21.682;2023-04-24T02:36:50;14.20;50.80
74101;DHT22;62462;52.530;21.682;2023-04-24T02:39:16;14.20;50.80
74101;DHT22;62462;52.530;21.682;2023-04-24T02:41:43;14.20;51.20
74101;DHT22;62462;52.530;21.682;2023-04-24T02:44:09;14.00;51.50
74101;DHT22;62462;52.530;21.682;2023-04-24T02:46:35;13.90;51.70
74101;DHT22;62462;52.530;21.682;2023-04-24T02:49:01;13.80;52.00
74101;DHT22;62462;52.530;21.682;2023-04-24T02:51:26;13.60;52.50
74101;DHT22;62462;52.530;21.682;2023-04-24T02:53:52;13.60;52.40
74101;DHT22;62462;52.530;21.682;2023-04-24T02:56:18;13.50;52.30
74101;DHT22;62462;52.530;21.682;2023-04-24T02:58:44;13.50;52.50
74101;DHT22;62462;52.530;21.682;2023-04-24T03:01:10;13.40;52.80
74101;DHT22;62462;52.530;21.682;2023-04-24T03:03:37;13.40;52.80
74101;DHT22;62462;52.530;21.682;2023-04-24T03:06:03;13.40;53.00
74101;DHT22;62462;52.530;21.682;2023-04-24T03:08:31;13.40;53.20
74101;DHT22;62462;52.530;21.682;2023-04-24T03:10:57;13.40;53.20
74101;DHT22;62462;52.530;21.682;2023-04-24T03:13:23;13.30;53.40
74101;DHT22;62462;52.530;21.682;2023-04-24T03:15:49;13.20;53.40
74101;DHT22;62462;52.530;21.682;2023-04-24T03:18:15;13.20;53.10
74101;DHT22;62462;52.530;21.682;2023-04-24T03:20:41;13.20;52.90
74101;DHT22;62462;52.530;21.682;2023-04-24T03:23:07;13.20;53.00
74101;DHT22;62462;52.530;21.682;2023-04-24T03:25:32;13.10;53.00
74101;DHT22;62462;52.530;21.682;2023-04-24T03:27:58;13.10;53.50
74101;DHT22;62462;52.530;21.682;2023-04-24T03:30:24;13.10;53.60
74101;DHT22;62462;52.530;21.682;2023-04-24T03:32:49;13.10;53.80
74101;DHT22;62462;52.530;21.682;2023-04-24T03:35:15;13.10;53.80
74101;DHT22;62462;52.530;21.682;2023-04-24T03:37:41;13.10;53.80
74101;DHT22;62462;52.530;21.682;2023-04-24T03:40:07;13.20;53.80
74101;DHT22;62462;52.530;21.682;2023-04-24T03:42:33;13.20;53.70
74101;DHT22;62462;52.530;21.682;2023-04-24T03:44:59;13.20;53.70
74101;DHT22;62462;52.530;21.682;2023-04-24T03:47:25;13.20;53.80
74101;DHT22;62462;52.530;21.682;2023-04-24T03:49:50;13.30;53.70
74101;DHT22;62462;52.530;21.682;2023-04-24T03:52:17;13.40;53.60
74101;DHT22;62462;52.530;21.682;2023-04-24T03:54:42;13.40;53.40
74101;DHT22;62462;52.530;21.682;2023-04-24T03:57:08;13.40;53.20
74101;DHT22;62462;52.530;21.682;2023-04-24T03:59:34;13.50;53.10
74101;DHT22;62462;52.530;21.682;2023-04-24T04:01:59;13.50;53.10
74101;DHT22;62462;52.530;21.682;2023-04-24T04:04:25;13.60;53.10
74101;DHT22;62462;52.530;21.682;2023-04-24T04:06:51;13.60;53.10
74101;DHT22;62462;52.530;21.682;2023-04-24T04:09:17;13.60;53.10
74101;DHT22;62462;52.530;21.682;2023-04-24T04:11:43;13.60;53.10
74101;DHT22;62462;52.530;21.682;2023-04-24T04:14:09;13.60;53.20
74101;DHT22;62462;52.530;21.682;2023-04-24T04:16:34;13.60;53.20
74101;DHT22;62462;52.530;21.682;2023-04-24T04:19:02;13.70;53.40
74101;DHT22;62462;52.530;21.682;2023-04-24T04:21:28;13.70;53.20
74101;DHT22;62462;52.530;21.682;2023-04-24T04:23:54;13.60;53.30
74101;DHT22;62462;52.530;21.682;2023-04-24T04:26:20;13.70;53.30
74101;DHT22;62462;52.530;21.682;2023-04-24T04:28:46;13.70;53.40
74101;DHT22;62462;52.530;21.682;2023-04-24T04:31:13;13.70;53.40
74101;DHT22;62462;52.530;21.682;2023-04-24T04:33:39;13.70;53.50
74101;DHT22;62462;52.530;21.682;2023-04-24T04:36:05;13.80;53.60
74101;DHT22;62462;52.530;21.682;2023-04-24T04:38:31;13.80;53.60
74101;DHT22;62462;52.530;21.682;2023-04-24T04:40:56;13.80;53.40
74101;DHT22;62462;52.530;21.682;2023-04-24T04:43:25;13.90;53.50
74101;DHT22;62462;52.530;21.682;2023-04-24T04:45:51;13.90;53.40
74101;DHT22;62462;52.530;21.682;2023-04-24T04:48:18;14.00;53.60
74101;DHT22;62462;52.530;21.682;2023-04-24T04:50:44;14.00;53.30
74101;DHT22;62462;52.530;21.682;2023-04-24T04:53:10;14.10;53.60
74101;DHT22;62462;52.530;21.682;2023-04-24T04:55:36;14.20;53.40
74101;DHT22;62462;52.530;21.682;2023-04-24T04:58:02;14.20;53.40
74101;DHT22;62462;52.530;21.682;2023-04-24T05:00:28;14.30;53.50
74101;DHT22;62462;52.530;21.682;2023-04-24T05:02:59;14.40;53.10
74101;DHT22;62462;52.530;21.682;2023-04-24T05:05:25;14.50;53.00
74101;DHT22;62462;52.530;21.682;2023-04-24T05:07:51;14.60;52.70
74101;DHT22;62462;52.530;21.682;2023-04-24T05:10:17;14.70;52.30
74101;DHT22;62462;52.530;21.682;2023-04-24T05:12:42;14.70;52.20
74101;DHT22;62462;52.530;21.682;2023-04-24T05:15:08;14.70;52.20
74101;DHT22;62462;52.530;21.682;2023-04-24T05:17:34;14.50;52.40
74101;DHT22;62462;52.530;21.682;2023-04-24T05:20:01;14.50;52.50
74101;DHT22;62462;52.530;21.682;2023-04-24T05:22:26;14.40;52.80
74101;DHT22;62462;52.530;21.682;2023-04-24T05:24:52;14.40;53.00
74101;DHT22;62462;52.530;21.682;2023-04-24T05:27:18;14.40;53.10
74101;DHT22;62462;52.530;21.682;2023-04-24T05:29:44;14.40;53.20
74101;DHT22;62462;52.530;21.682;2023-04-24T05:32:10;14.50;53.40
74101;DHT22;62462;52.530;21.682;2023-04-24T05:34:36;14.50;53.20
74101;DHT22;62462;52.530;21.682;2023-04-24T05:37:02;14.60;53.20
74101;DHT22;62462;52.530;21.682;2023-04-24T05:39:28;14.70;53.00
74101;DHT22;62462;52.530;21.682;2023-04-24T05:41:54;14.80;52.90
74101;DHT22;62462;52.530;21.682;2023-04-24T05:44:23;14.90;52.60
74101;DHT22;62462;52.530;21.682;2023-04-24T05:46:49;14.90;52.50
74101;DHT22;62462;52.530;21.682;2023-04-24T05:49:14;15.00;52.60
74101;DHT22;62462;52.530;21.682;2023-04-24T05:51:40;15.10;52.50
74101;DHT22;62462;52.530;21.682;2023-04-24T05:54:06;15.20;52.40
74101;DHT22;62462;52.530;21.682;2023-04-24T05:56:32;15.20;53.10
74101;DHT22;62462;52.530;21.682;2023-04-24T05:58:58;15.30;53.80
74101;DHT22;62462;52.530;21.682;2023-04-24T06:01:24;15.30;53.10
74101;DHT22;62462;52.530;21.682;2023-04-24T06:03:50;15.30;53.80
74101;DHT22;62462;52.530;21.682;2023-04-24T06:06:16;15.30;54.90
74101;DHT22;62462;52.530;21.682;2023-04-24T06:08:41;15.30;54.90
74101;DHT22;62462;52.530;21.682;2023-04-24T06:11:09;15.20;55.50
74101;DHT22;62462;52.530;21.682;2023-04-24T06:13:35;15.20;55.30
74101;DHT22;62462;52.530;21.682;2023-04-24T06:16:01;15.20;55.10
74101;DHT22;62462;52.530;21.682;2023-04-24T06:18:27;15.30;55.00
74101;DHT22;62462;52.530;21.682;2023-04-24T06:20:52;15.40;54.70
74101;DHT22;62462;52.530;21.682;2023-04-24T06:23:18;15.50;54.20
74101;DHT22;62462;52.530;21.682;2023-04-24T06:25:44;15.70;54.10
74101;DHT22;62462;52.530;21.682;2023-04-24T06:28:09;15.90;53.60
74101;DHT22;62462;52.530;21.682;2023-04-24T06:30:35;16.10;53.50
74101;DHT22;62462;52.530;21.682;2023-04-24T06:33:01;16.20;53.30
74101;DHT22;62462;52.530;21.682;2023-04-24T06:35:27;16.30;52.90
74101;DHT22;62462;52.530;21.682;2023-04-24T06:37:52;16.40;52.50
74101;DHT22;62462;52.530;21.682;2023-04-24T06:40:18;16.40;52.20
74101;DHT22;62462;52.530;21.682;2023-04-24T06:42:44;16.50;52.00
74101;DHT22;62462;52.530;21.682;2023-04-24T06:45:10;16.60;52.10
74101;DHT22;62462;52.530;21.682;2023-04-24T06:47:36;16.70;51.80
74101;DHT22;62462;52.530;21.682;2023-04-24T06:50:03;16.80;51.80
74101;DHT22;62462;52.530;21.682;2023-04-24T06:52:29;16.90;51.30
74101;DHT22;62462;52.530;21.682;2023-04-24T06:55:04;17.00;51.20
74101;DHT22;62462;52.530;21.682;2023-04-24T06:57:32;17.20;51.10
74101;DHT22;62462;52.530;21.682;2023-04-24T06:59:57;17.40;50.70
74101;DHT22;62462;52.530;21.682;2023-04-24T07:02:23;17.60;50.60
74101;DHT22;62462;52.530;21.682;2023-04-24T07:04:49;17.80;49.50
74101;DHT22;62462;52.530;21.682;2023-04-24T07:07:15;17.90;49.40
74101;DHT22;62462;52.530;21.682;2023-04-24T07:09:42;18.00;49.00
74101;DHT22;62462;52.530;21.682;2023-04-24T07:12:08;18.10;49.10
74101;DHT22;62462;52.530;21.682;2023-04-24T07:14:36;18.20;48.90
74101;DHT22;62462;52.530;21.682;2023-04-24T07:17:03;18.50;49.10
74101;DHT22;62462;52.530;21.682;2023-04-24T07:19:29;18.60;48.90
74101;DHT22;62462;52.530;21.682;2023-04-24T07:21:55;18.70;47.80
74101;DHT22;62462;52.530;21.682;2023-04-24T07:24:21;18.80;48.00
74101;DHT22;62462;52.530;21.682;2023-04-24T07:26:46;18.80;47.30
74101;DHT22;62462;52.530;21.682;2023-04-24T07:29:13;18.60;46.50
74101;DHT22;62462;52.530;21.682;2023-04-24T07:31:39;18.50;46.90
74101;DHT22;62462;52.530;21.682;2023-04-24T07:34:06;18.40;47.30
74101;DHT22;62462;52.530;21.682;2023-04-24T07:36:32;18.30;47.50
74101;DHT22;62462;52.530;21.682;2023-04-24T07:38:58;18.30;47.90
74101;DHT22;62462;52.530;21.682;2023-04-24T07:41:24;18.30;48.00
74101;DHT22;62462;52.530;21.682;2023-04-24T07:43:50;18.20;48.30
74101;DHT22;62462;52.530;21.682;2023-04-24T07:46:16;18.30;48.30
74101;DHT22;62462;52.530;21.682;2023-04-24T07:48:42;18.30;48.10
74101;DHT22;62462;52.530;21.682;2023-04-24T07:51:08;18.20;48.20
74101;DHT22;62462;52.530;21.682;2023-04-24T07:53:36;18.20;48.20
74101;DHT22;62462;52.530;21.682;2023-04-24T07:56:02;18.20;48.20
74101;DHT22;62462;52.530;21.682;2023-04-24T07:58:27;18.20;48.20
74101;DHT22;62462;52.530;21.682;2023-04-24T08:00:53;18.30;48.40
74101;DHT22;62462;52.530;21.682;2023-04-24T08:03:19;18.30;48.20
74101;DHT22;62462;52.530;21.682;2023-04-24T08:05:45;18.40;48.50
74101;DHT22;62462;52.530;21.682;2023-04-24T08:08:11;18.60;49.40
74101;DHT22;62462;52.530;21.682;2023-04-24T08:10:37;19.00;49.20
74101;DHT22;62462;52.530;21.682;2023-04-24T08:13:03;19.50;48.30
74101;DHT22;62462;52.530;21.682;2023-04-24T08:15:29;19.90;47.30
74101;DHT22;62462;52.530;21.682;2023-04-24T08:17:54;20.20;46.20
74101;DHT22;62462;52.530;21.682;2023-04-24T08:20:20;20.50;45.00
74101;DHT22;62462;52.530;21.682;2023-04-24T08:22:46;20.70;42.40
74101;DHT22;62462;52.530;21.682;2023-04-24T08:25:14;20.70;43.60
74101;DHT22;62462;52.530;21.682;2023-04-24T08:27:40;20.90;43.20
74101;DHT22;62462;52.530;21.682;2023-04-24T08:30:06;21.10;42.50
74101;DHT22;62462;52.530;21.682;2023-04-24T08:32:32;21.20;41.50
74101;DHT22;62462;52.530;21.682;2023-04-24T08:34:59;21.30;41.60
74101;DHT22;62462;52.530;21.682;2023-04-24T08:37:26;21.40;40.60
74101;DHT22;62462;52.530;21.682;2023-04-24T08:39:53;21.40;39.80
74101;DHT22;62462;52.530;21.682;2023-04-24T08:42:20;21.50;40.30
74101;DHT22;62462;52.530;21.682;2023-04-24T08:44:47;21.60;38.80
74101;DHT22;62462;52.530;21.682;2023-04-24T08:47:15;21.60;38.90
74101;DHT22;62462;52.530;21.682;2023-04-24T08:49:42;21.80;39.80
74101;DHT22;62462;52.530;21.682;2023-04-24T08:52:08;21.90;38.60
74101;DHT22;62462;52.530;21.682;2023-04-24T08:54:49;22.00;39.60
74101;DHT22;62462;52.530;21.682;2023-04-24T08:57:15;22.00;38.60
74101;DHT22;62462;52.530;21.682;2023-04-24T08:59:42;22.10;39.00
74101;DHT22;62462;52.530;21.682;2023-04-24T09:02:10;22.20;38.80
74101;DHT22;62462;52.530;21.682;2023-04-24T09:04:37;22.40;39.30
74101;DHT22;62462;52.530;21.682;2023-04-24T09:07:03;22.60;38.20
74101;DHT22;62462;52.530;21.682;2023-04-24T09:09:32;22.70;38.80
74101;DHT22;62462;52.530;21.682;2023-04-24T09:11:58;22.80;37.80
74101;DHT22;62462;52.530;21.682;2023-04-24T09:14:25;22.90;38.00
74101;DHT22;62462;52.530;21.682;2023-04-24T09:16:51;22.90;37.00
74101;DHT22;62462;52.530;21.682;2023-04-24T09:19:17;22.80;35.20
74101;DHT22;62462;52.530;21.682;2023-04-24T09:21:46;22.80;37.00
74101;DHT22;62462;52.530;21.682;2023-04-24T09:24:19;22.80;35.90
74101;DHT22;62462;52.530;21.682;2023-04-24T09:26:48;22.80;35.80
74101;DHT22;62462;52.530;21.682;2023-04-24T09:29:16;23.00;37.40
74101;DHT22;62462;52.530;21.682;2023-04-24T09:31:42;23.20;35.70
74101;DHT22;62462;52.530;21.682;2023-04-24T09:34:08;23.30;34.80
74101;DHT22;62462;52.530;21.682;2023-04-24T09:39:06;23.30;34.70
74101;DHT22;62462;52.530;21.682;2023-04-24T09:41:33;23.30;32.90
74101;DHT22;62462;52.530;21.682;2023-04-24T09:47:08;23.40;32.20
74101;DHT22;62462;52.530;21.682;2023-04-24T09:49:35;23.50;33.70
74101;DHT22;62462;52.530;21.682;2023-04-24T09:52:10;23.60;32.60
74101;DHT22;62462;52.530;21.682;2023-04-24T09:54:36;23.70;31.10
74101;DHT22;62462;52.530;21.682;2023-04-24T09:57:03;23.80;32.60
74101;DHT22;62462;52.530;21.682;2023-04-24T09:59:29;23.90;33.40
74101;DHT22;62462;52.530;21.682;2023-04-24T10:01:55;24.10;33.60
74101;DHT22;62462;52.530;21.682;2023-04-24T10:04:25;24.30;31.50
74101;DHT22;62462;52.530;21.682;2023-04-24T10:06:53;24.20;31.10
74101;DHT22;62462;52.530;21.682;2023-04-24T10:09:21;24.10;31.60
74101;DHT22;62462;52.530;21.682;2023-04-24T10:11:49;24.20;32.30
74101;DHT22;62462;52.530;21.682;2023-04-24T10:14:18;24.30;32.10
74101;DHT22;62462;52.530;21.682;2023-04-24T10:16:44;24.30;32.20
74101;DHT22;62462;52.530;21.682;2023-04-24T10:19:13;24.30;31.90
74101;DHT22;62462;52.530;21.682;2023-04-24T10:21:41;24.30;32.30
74101;DHT22;62462;52.530;21.682;2023-04-24T10:24:17;24.40;32.40
74101;DHT22;62462;52.530;21.682;2023-04-24T10:26:44;24.40;31.80
74101;DHT22;62462;52.530;21.682;2023-04-24T10:29:13;24.40;31.20
74101;DHT22;62462;52.530;21.682;2023-04-24T10:31:41;24.50;31.30
74101;DHT22;62462;52.530;21.682;2023-04-24T10:34:08;24.60;30.90
74101;DHT22;62462;52.530;21.682;2023-04-24T10:36:36;24.60;31.70
74101;DHT22;62462;52.530;21.682;2023-04-24T10:39:06;24.70;29.50
74101;DHT22;62462;52.530;21.682;2023-04-24T10:41:33;24.80;30.40
74101;DHT22;62462;52.530;21.682;2023-04-24T10:44:09;24.80;30.40
74101;DHT22;62462;52.530;21.682;2023-04-24T10:46:36;24.80;30.50
74101;DHT22;62462;52.530;21.682;2023-04-24T10:49:06;24.80;30.00
74101;DHT22;62462;52.530;21.682;2023-04-24T10:51:46;24.80;30.40
74101;DHT22;62462;52.530;21.682;2023-04-24T10:56:52;24.80;30.00
74101;DHT22;62462;52.530;21.682;2023-04-24T10:59:25;25.00;29.10
74101;DHT22;62462;52.530;21.682;2023-04-24T11:01:54;25.00;29.70
74101;DHT22;62462;52.530;21.682;2023-04-24T11:04:32;25.20;29.40
74101;DHT22;62462;52.530;21.682;2023-04-24T11:06:59;25.30;29.30
74101;DHT22;62462;52.530;21.682;2023-04-24T11:09:30;25.40;29.20
74101;DHT22;62462;52.530;21.682;2023-04-24T11:12:07;25.40;29.00
74101;DHT22;62462;52.530;21.682;2023-04-24T11:17:36;25.40;27.90
74101;DHT22;62462;52.530;21.682;2023-04-24T11:20:05;25.40;28.60
74101;DHT22;62462;52.530;21.682;2023-04-24T11:22:34;25.50;28.50
74101;DHT22;62462;52.530;21.682;2023-04-24T11:25:03;25.10;28.50
74101;DHT22;62462;52.530;21.682;2023-04-24T11:27:31;24.90;29.70
74101;DHT22;62462;52.530;21.682;2023-04-24T11:34:52;25.30;29.20
74101;DHT22;62462;52.530;21.682;2023-04-24T11:37:18;25.40;28.70
74101;DHT22;62462;52.530;21.682;2023-04-24T11:39:43;25.60;28.70
74101;DHT22;62462;52.530;21.682;2023-04-24T11:42:09;25.60;28.30
74101;DHT22;62462;52.530;21.682;2023-04-24T11:44:35;25.60;28.10
74101;DHT22;62462;52.530;21.682;2023-04-24T11:47:08;25.80;29.10
74101;DHT22;62462;52.530;21.682;2023-04-24T11:49:34;25.90;27.00
74101;DHT22;62462;52.530;21.682;2023-04-24T11:52:02;25.90;27.30
74101;DHT22;62462;52.530;21.682;2023-04-24T11:54:27;25.90;27.50
74101;DHT22;62462;52.530;21.682;2023-04-24T11:56:53;25.80;27.70
74101;DHT22;62462;52.530;21.682;2023-04-24T11:59:19;25.90;28.70
74101;DHT22;62462;52.530;21.682;2023-04-24T12:01:45;25.80;28.50
74101;DHT22;62462;52.530;21.682;2023-04-24T12:04:11;25.50;29.00
74101;DHT22;62462;52.530;21.682;2023-04-24T12:06:38;25.60;29.50
74101;DHT22;62462;52.530;21.682;2023-04-24T12:09:03;25.90;29.60
74101;DHT22;62462;52.530;21.682;2023-04-24T12:11:30;26.10;27.00
74101;DHT22;62462;52.530;21.682;2023-04-24T12:13:56;25.90;26.70
74101;DHT22;62462;52.530;21.682;2023-04-24T12:16:26;25.40;26.70
74101;DHT22;62462;52.530;21.682;2023-04-24T12:18:51;25.00;27.80
74101;DHT22;62462;52.530;21.682;2023-04-24T12:21:22;24.70;28.40
74101;DHT22;62462;52.530;21.682;2023-04-24T12:23:48;24.90;27.80
74101;DHT22;62462;52.530;21.682;2023-04-24T12:26:20;25.20;28.20
74101;DHT22;62462;52.530;21.682;2023-04-24T12:28:49;25.40;28.40
74101;DHT22;62462;52.530;21.682;2023-04-24T12:31:16;25.80;28.20
74101;DHT22;62462;52.530;21.682;2023-04-24T12:33:42;25.90;26.60
74101;DHT22;62462;52.530;21.682;2023-04-24T12:36:10;25.60;27.00
74101;DHT22;62462;52.530;21.682;2023-04-24T12:38:37;25.40;28.20
74101;DHT22;62462;52.530;21.682;2023-04-24T12:41:11;25.60;29.00
74101;DHT22;62462;52.530;21.682;2023-04-24T12:43:37;25.80;28.40
74101;DHT22;62462;52.530;21.682;2023-04-24T12:46:04;26.00;28.90
74101;DHT22;62462;52.530;21.682;2023-04-24T12:48:30;26.30;27.70
74101;DHT22;62462;52.530;21.682;2023-04-24T12:50:59;26.40;25.40
74101;DHT22;62462;52.530;21.682;2023-04-24T12:53:28;26.50;25.90
74101;DHT22;62462;52.530;21.682;2023-04-24T12:55:56;26.60;25.50
74101;DHT22;62462;52.530;21.682;2023-04-24T12:58:21;26.60;25.30
74101;DHT22;62462;52.530;21.682;2023-04-24T13:00:48;26.60;26.30
74101;DHT22;62462;52.530;21.682;2023-04-24T13:03:14;26.40;25.50
74101;DHT22;62462;52.530;21.682;2023-04-24T13:05:42;26.00;26.10
74101;DHT22;62462;52.530;21.682;2023-04-24T13:08:08;25.90;25.90
74101;DHT22;62462;52.530;21.682;2023-04-24T13:10:34;26.20;26.50
74101;DHT22;62462;52.530;21.682;2023-04-24T13:13:00;26.40;26.00
74101;DHT22;62462;52.530;21.682;2023-04-24T13:15:26;26.40;26.10
74101;DHT22;62462;52.530;21.682;2023-04-24T13:17:51;26.40;26.40
74101;DHT22;62462;52.530;21.682;2023-04-24T13:20:18;26.00;26.30
74101;DHT22;62462;52.530;21.682;2023-04-24T13:22:43;25.60;26.30
74101;DHT22;62462;52.530;21.682;2023-04-24T13:25:09;25.50;26.80
74101;DHT22;62462;52.530;21.682;2023-04-24T13:27:37;25.60;25.90
74101;DHT22;62462;52.530;21.682;2023-04-24T13:30:03;25.80;26.00
74101;DHT22;62462;52.530;21.682;2023-04-24T13:32:29;26.00;26.10
74101;DHT22;62462;52.530;21.682;2023-04-24T13:34:56;26.20;25.70
74101;DHT22;62462;52.530;21.682;2023-04-24T13:37:21;26.50;25.50
74101;DHT22;62462;52.530;21.682;2023-04-24T13:39:48;26.60;25.90
74101;DHT22;62462;52.530;21.682;2023-04-24T13:42:14;26.80;25.00
74101;DHT22;62462;52.530;21.682;2023-04-24T13:44:40;26.50;25.10
74101;DHT22;62462;52.530;21.682;2023-04-24T13:47:05;26.10;25.50
74101;DHT22;62462;52.530;21.682;2023-04-24T13:49:31;25.60;25.90
74101;DHT22;62462;52.530;21.682;2023-04-24T13:51:57;25.30;25.70
74101;DHT22;62462;52.530;21.682;2023-04-24T13:54:23;25.00;26.40
74101;DHT22;62462;52.530;21.682;2023-04-24T13:56:51;24.80;26.20
74101;DHT22;62462;52.530;21.682;2023-04-24T13:59:17;24.60;26.70
74101;DHT22;62462;52.530;21.682;2023-04-24T14:01:44;24.50;26.90
74101;DHT22;62462;52.530;21.682;2023-04-24T14:04:10;24.60;27.60
74101;DHT22;62462;52.530;21.682;2023-04-24T14:06:36;24.80;27.50
74101;DHT22;62462;52.530;21.682;2023-04-24T14:09:02;25.20;27.30
74101;DHT22;62462;52.530;21.682;2023-04-24T14:11:28;25.50;26.40
74101;DHT22;62462;52.530;21.682;2023-04-24T14:13:55;25.50;26.10
74101;DHT22;62462;52.530;21.682;2023-04-24T14:16:23;25.50;26.00
74101;DHT22;62462;52.530;21.682;2023-04-24T14:18:49;25.40;26.80
74101;DHT22;62462;52.530;21.682;2023-04-24T14:21:15;25.50;26.60
74101;DHT22;62462;52.530;21.682;2023-04-24T14:23:41;25.50;26.50
74101;DHT22;62462;52.530;21.682;2023-04-24T14:26:07;25.50;27.40
74101;DHT22;62462;52.530;21.682;2023-04-24T14:28:33;25.60;27.40
74101;DHT22;62462;52.530;21.682;2023-04-24T14:30:59;25.50;26.70
74101;DHT22;62462;52.530;21.682;2023-04-24T14:33:25;25.70;26.30
74101;DHT22;62462;52.530;21.682;2023-04-24T14:35:51;26.00;27.70
74101;DHT22;62462;52.530;21.682;2023-04-24T14:38:16;26.10;27.70
74101;DHT22;62462;52.530;21.682;2023-04-24T14:40:42;26.00;28.40
74101;DHT22;62462;52.530;21.682;2023-04-24T14:43:08;26.10;29.20
74101;DHT22;62462;52.530;21.682;2023-04-24T14:45:34;26.10;28.90
74101;DHT22;62462;52.530;21.682;2023-04-24T14:48:03;26.10;28.90
74101;DHT22;62462;52.530;21.682;2023-04-24T14:50:29;26.20;28.40
74101;DHT22;62462;52.530;21.682;2023-04-24T14:52:55;26.00;28.70
74101;DHT22;62462;52.530;21.682;2023-04-24T14:55:25;25.80;28.80
74101;DHT22;62462;52.530;21.682;2023-04-24T14:57:51;25.90;29.30
74101;DHT22;62462;52.530;21.682;2023-04-24T15:00:18;25.90;29.00
74101;DHT22;62462;52.530;21.682;2023-04-24T15:02:45;26.00;29.60
74101;DHT22;62462;52.530;21.682;2023-04-24T15:05:11;26.10;29.60
74101;DHT22;62462;52.530;21.682;2023-04-24T15:07:38;26.30;29.20
74101;DHT22;62462;52.530;21.682;2023-04-24T15:10:04;26.40;29.40
74101;DHT22;62462;52.530;21.682;2023-04-24T15:12:30;26.20;30.60
74101;DHT22;62462;52.530;21.682;2023-04-24T15:14:57;25.80;30.40
74101;DHT22;62462;52.530;21.682;2023-04-24T15:17:22;25.40;32.40
74101;DHT22;62462;52.530;21.682;2023-04-24T15:19:48;25.10;32.40
74101;DHT22;62462;52.530;21.682;2023-04-24T15:22:14;24.70;33.80
74101;DHT22;62462;52.530;21.682;2023-04-24T15:24:39;24.10;34.50
74101;DHT22;62462;52.530;21.682;2023-04-24T15:27:05;23.80;35.10